createdAt,value
2023-06-30T00:03:32.368Z,4.00
2023-06-30T00:06:00.035Z,3.45
2023-06-30T00:08:30.601Z,4.03
2023-06-30T00:10:59.268Z,3.83
2023-06-30T00:13:26.953Z,3.53
2023-06-30T00:15:56.141Z,3.65
2023-06-30T00:18:23.876Z,4.18
2023-06-30T00:20:56.080Z,3.28
2023-06-30T00:23:34.537Z,4.10
2023-06-30T00:26:05.465Z,3.33
2023-06-30T00:28:33.510Z,3.67
2023-06-30T00:31:02.090Z,4.10
2023-06-30T00:33:29.812Z,3.38
2023-06-30T00:36:04.619Z,3.97
2023-06-30T00:38:32.355Z,4.55
2023-06-30T00:43:50.915Z,3.90
2023-06-30T00:46:19.302Z,3.35
2023-06-30T00:48:49.844Z,4.30
2023-06-30T00:51:23.545Z,3.70
2023-06-30T00:53:57.043Z,3.20
2023-06-30T00:56:26.678Z,5.32
2023-06-30T00:59:00.162Z,3.60
2023-06-30T01:02:12.212Z,3.53
2023-06-30T01:04:48.326Z,4.45
2023-06-30T01:07:32.374Z,3.80
2023-06-30T01:10:09.780Z,3.80
2023-06-30T01:12:37.499Z,3.40
2023-06-30T01:15:06.121Z,3.92
2023-06-30T01:17:35.146Z,3.67
2023-06-30T01:20:05.874Z,3.60
2023-06-30T01:22:41.194Z,4.00
2023-06-30T01:25:20.354Z,4.13
2023-06-30T01:27:48.262Z,3.28
2023-06-30T01:30:16.007Z,4.03
2023-06-30T01:32:46.865Z,3.45
2023-06-30T01:35:14.413Z,3.70
2023-06-30T01:37:41.482Z,3.83
2023-06-30T01:40:09.320Z,3.90
2023-06-30T01:42:38.378Z,4.18
2023-06-30T01:45:07.418Z,3.72
2023-06-30T01:47:35.006Z,3.65
2023-06-30T01:50:02.830Z,3.85
2023-06-30T01:52:31.205Z,3.63
2023-06-30T01:54:58.767Z,4.10
2023-06-30T01:57:25.969Z,4.38
2023-06-30T01:59:59.877Z,4.03
2023-06-30T02:02:30.937Z,4.60
2023-06-30T02:04:59.720Z,3.90
2023-06-30T02:07:27.068Z,3.95
2023-06-30T02:09:54.861Z,4.25
2023-06-30T02:12:23.362Z,4.68
2023-06-30T02:14:50.835Z,4.22
2023-06-30T02:17:26.633Z,4.90
2023-06-30T02:19:53.804Z,4.38
2023-06-30T02:22:20.939Z,4.32
2023-06-30T02:24:48.152Z,4.10
2023-06-30T02:27:18.100Z,4.82
2023-06-30T02:29:45.174Z,4.65
2023-06-30T02:32:12.384Z,4.50
2023-06-30T02:34:39.496Z,4.75
2023-06-30T02:37:06.794Z,5.13
2023-06-30T02:39:34.071Z,5.22
2023-06-30T02:42:01.930Z,5.80
2023-06-30T02:44:29.478Z,5.13
2023-06-30T02:46:56.841Z,5.57
2023-06-30T02:49:25.356Z,5.95
2023-06-30T02:51:52.614Z,5.88
2023-06-30T02:54:19.754Z,4.78
2023-06-30T02:56:47.668Z,5.82
2023-06-30T02:59:15.577Z,4.93
2023-06-30T03:01:42.866Z,5.93
2023-06-30T03:04:10.272Z,5.32
2023-06-30T03:06:38.401Z,5.30
2023-06-30T03:09:05.919Z,5.30
2023-06-30T03:11:34.599Z,4.75
2023-06-30T03:14:01.922Z,5.88
2023-06-30T03:16:34.914Z,5.38
2023-06-30T03:19:04.752Z,5.65
2023-06-30T03:21:32.111Z,5.40
2023-06-30T03:23:59.385Z,5.55
2023-06-30T03:26:29.757Z,5.05
2023-06-30T03:28:56.947Z,5.15
2023-06-30T03:31:25.231Z,5.20
2023-06-30T03:33:53.331Z,4.70
2023-06-30T03:36:20.377Z,6.00
2023-06-30T03:38:47.564Z,5.07
2023-06-30T03:41:14.876Z,5.50
2023-06-30T03:43:44.178Z,4.90
2023-06-30T03:46:13.111Z,5.53
2023-06-30T03:48:40.611Z,5.10
2023-06-30T03:51:09.439Z,4.90
2023-06-30T03:53:39.755Z,5.25
2023-06-30T03:56:07.402Z,5.70
2023-06-30T03:58:34.564Z,5.18
2023-06-30T04:01:04.339Z,5.72
2023-06-30T04:03:32.399Z,5.13
2023-06-30T04:05:59.801Z,5.70
2023-06-30T04:08:27.285Z,5.60
2023-06-30T04:10:54.654Z,5.28
2023-06-30T04:13:22.431Z,5.78
2023-06-30T04:15:49.842Z,5.38
2023-06-30T04:18:17.053Z,5.57
2023-06-30T04:20:45.717Z,5.40
2023-06-30T04:23:12.829Z,5.18
2023-06-30T04:25:43.156Z,6.00
2023-06-30T04:28:10.574Z,6.20
2023-06-30T04:30:37.939Z,6.07
2023-06-30T04:33:07.479Z,5.50
2023-06-30T04:35:37.891Z,5.57
2023-06-30T04:38:05.170Z,5.22
2023-06-30T04:40:32.396Z,5.95
2023-06-30T04:43:01.684Z,4.95
2023-06-30T04:45:28.988Z,5.45
2023-06-30T04:47:56.213Z,5.63
2023-06-30T04:50:29.149Z,5.22
2023-06-30T04:52:56.467Z,6.65
2023-06-30T04:55:23.553Z,5.85
2023-06-30T04:57:50.852Z,5.85
2023-06-30T05:00:18.962Z,6.25
2023-06-30T05:02:46.129Z,6.22
2023-06-30T05:05:16.010Z,6.32
2023-06-30T05:07:47.128Z,5.50
2023-06-30T05:10:14.349Z,6.35
2023-06-30T05:12:46.195Z,5.68
2023-06-30T05:15:13.722Z,6.20
2023-06-30T05:17:48.571Z,6.68
2023-06-30T05:20:23.910Z,5.97
2023-06-30T05:22:52.462Z,5.57
2023-06-30T05:25:33.496Z,5.28
2023-06-30T05:28:00.714Z,5.85
2023-06-30T05:30:27.850Z,6.20
2023-06-30T05:32:54.976Z,5.88
2023-06-30T05:35:22.063Z,6.20
2023-06-30T05:37:49.204Z,5.70
2023-06-30T05:40:16.448Z,5.57
2023-06-30T05:42:43.604Z,5.65
2023-06-30T05:45:11.040Z,5.90
2023-06-30T05:47:38.187Z,6.00
2023-06-30T05:50:05.795Z,5.97
2023-06-30T05:52:32.947Z,5.75
2023-06-30T05:55:00.945Z,5.80
2023-06-30T05:57:28.874Z,5.55
2023-06-30T05:59:56.269Z,6.50
2023-06-30T06:02:23.646Z,6.32
2023-06-30T06:04:53.006Z,5.70
2023-06-30T06:07:20.565Z,6.47
2023-06-30T06:09:47.689Z,5.85
2023-06-30T06:12:14.877Z,5.65
2023-06-30T06:14:42.669Z,5.15
2023-06-30T06:17:09.993Z,5.65
2023-06-30T06:19:37.241Z,5.95
2023-06-30T06:22:04.495Z,5.93
2023-06-30T06:24:31.908Z,5.85
2023-06-30T06:26:59.591Z,5.10
2023-06-30T06:29:29.322Z,5.28
2023-06-30T06:31:57.601Z,6.45
2023-06-30T06:34:24.854Z,6.10
2023-06-30T06:36:52.022Z,4.82
2023-06-30T06:39:20.470Z,5.85
2023-06-30T06:41:47.827Z,5.53
2023-06-30T06:44:17.661Z,5.63
2023-06-30T06:46:45.234Z,5.63
2023-06-30T06:49:12.399Z,5.43
2023-06-30T06:51:39.967Z,5.50
2023-06-30T06:54:07.090Z,5.68
2023-06-30T06:56:34.346Z,5.38
2023-06-30T06:59:01.446Z,5.82
2023-06-30T07:01:28.562Z,5.47
2023-06-30T07:03:55.807Z,5.07
2023-06-30T07:06:23.721Z,5.72
2023-06-30T07:08:51.122Z,5.63
2023-06-30T07:11:18.466Z,6.28
2023-06-30T07:13:46.145Z,6.82
2023-06-30T07:16:13.459Z,6.22
2023-06-30T07:18:40.654Z,5.85
2023-06-30T07:21:07.886Z,6.50
2023-06-30T07:23:34.973Z,4.97
2023-06-30T07:26:02.298Z,6.22
2023-06-30T07:28:29.548Z,6.38
2023-06-30T07:30:56.638Z,5.78
2023-06-30T07:33:23.627Z,5.80
2023-06-30T07:35:50.700Z,6.32
2023-06-30T07:38:17.845Z,6.13
2023-06-30T07:40:55.952Z,6.53
2023-06-30T07:43:24.320Z,5.90
2023-06-30T07:45:51.658Z,5.65
2023-06-30T07:48:19.079Z,7.10
2023-06-30T07:50:58.880Z,6.13
2023-06-30T07:53:35.061Z,6.22
2023-06-30T07:56:02.195Z,5.53
2023-06-30T07:58:29.586Z,6.05
2023-06-30T08:00:56.727Z,7.22
2023-06-30T08:03:24.323Z,5.90
2023-06-30T08:05:51.865Z,6.28
2023-06-30T08:08:19.923Z,6.63
2023-06-30T08:10:48.271Z,6.60
2023-06-30T08:13:17.276Z,7.30
2023-06-30T08:15:45.971Z,5.75
2023-06-30T08:18:14.856Z,6.25
2023-06-30T08:20:59.254Z,5.78
2023-06-30T08:23:27.424Z,5.03
2023-06-30T08:25:55.864Z,5.38
2023-06-30T08:28:24.101Z,6.22
2023-06-30T08:30:52.056Z,6.05
2023-06-30T08:35:49.555Z,5.95
2023-06-30T08:38:22.615Z,6.50
2023-06-30T08:40:51.552Z,5.60
2023-06-30T08:43:26.091Z,6.32
2023-06-30T08:45:55.495Z,5.72
2023-06-30T08:48:23.120Z,6.40
2023-06-30T08:50:53.775Z,7.03
2023-06-30T08:53:24.551Z,6.72
2023-06-30T08:55:52.124Z,6.40
2023-06-30T08:58:25.759Z,7.97
2023-06-30T09:00:57.143Z,7.20
2023-06-30T09:03:25.300Z,6.70
2023-06-30T09:05:59.853Z,6.85
2023-06-30T09:08:47.210Z,8.48
2023-06-30T09:11:17.898Z,7.88
2023-06-30T09:13:47.928Z,7.97
2023-06-30T09:16:19.657Z,7.10
2023-06-30T09:18:48.770Z,7.05
2023-06-30T09:21:16.120Z,7.60
2023-06-30T09:23:46.320Z,7.22
2023-06-30T09:26:15.405Z,7.70
2023-06-30T09:28:46.466Z,6.82
2023-06-30T09:31:15.900Z,7.28
2023-06-30T09:33:55.276Z,7.13
2023-06-30T09:36:25.878Z,6.63
2023-06-30T09:39:02.224Z,6.97
2023-06-30T09:41:35.722Z,6.75
2023-06-30T09:44:08.293Z,6.35
2023-06-30T09:46:37.630Z,10.95
2023-06-30T09:49:06.048Z,8.55
2023-06-30T09:51:38.987Z,6.72
2023-06-30T09:54:13.414Z,6.97
2023-06-30T09:56:46.740Z,7.15
2023-06-30T09:59:17.140Z,7.97
2023-06-30T10:01:52.810Z,7.82
2023-06-30T10:04:20.304Z,7.93
2023-06-30T10:06:49.334Z,9.50
2023-06-30T10:09:21.494Z,7.13
2023-06-30T10:12:10.289Z,9.40
2023-06-30T10:14:42.601Z,8.27
2023-06-30T10:17:10.346Z,7.87
2023-06-30T10:19:40.810Z,6.88
2023-06-30T10:22:08.554Z,7.25
2023-06-30T10:24:44.847Z,8.63
2023-06-30T10:27:19.792Z,7.15
2023-06-30T10:29:51.033Z,7.50
2023-06-30T10:32:21.851Z,7.22
2023-06-30T10:34:53.201Z,7.05
2023-06-30T10:37:24.616Z,7.28
2023-06-30T10:39:57.018Z,9.23
2023-06-30T10:42:29.784Z,8.00
2023-06-30T10:45:01.312Z,8.07
2023-06-30T10:47:35.416Z,8.85
2023-06-30T10:50:13.774Z,7.93
2023-06-30T10:52:52.938Z,7.53
2023-06-30T10:55:27.868Z,8.32
2023-06-30T10:58:05.661Z,8.60
2023-06-30T11:00:37.473Z,8.55
2023-06-30T11:03:07.335Z,8.00
2023-06-30T11:05:38.960Z,8.18
2023-06-30T11:08:09.316Z,9.43
2023-06-30T11:10:48.664Z,7.65
2023-06-30T11:13:40.127Z,8.25
2023-06-30T11:16:07.297Z,9.10
2023-06-30T11:18:40.314Z,8.55
2023-06-30T11:23:38.939Z,8.93
2023-06-30T11:26:22.913Z,8.30
2023-06-30T11:28:50.332Z,8.85
2023-06-30T11:31:18.509Z,9.30
2023-06-30T11:33:47.237Z,9.02
2023-06-30T11:36:15.209Z,8.55
2023-06-30T11:38:50.444Z,8.73
2023-06-30T11:41:24.844Z,7.93
2023-06-30T11:43:57.451Z,8.27
2023-06-30T11:46:26.374Z,8.90
2023-06-30T11:49:03.716Z,8.43
2023-06-30T11:51:37.318Z,8.38
2023-06-30T11:54:04.588Z,8.25
2023-06-30T11:56:31.843Z,7.43
2023-06-30T11:59:03.933Z,8.20
2023-06-30T12:01:36.811Z,7.70
2023-06-30T12:04:24.476Z,8.25
2023-06-30T12:06:56.673Z,7.32
2023-06-30T12:09:24.375Z,6.18
2023-06-30T12:11:51.598Z,6.43
2023-06-30T12:14:28.441Z,7.60
2023-06-30T12:16:56.535Z,6.88
2023-06-30T12:19:30.296Z,6.03
2023-06-30T12:22:03.094Z,6.30
2023-06-30T12:24:35.387Z,5.50
2023-06-30T12:27:07.749Z,5.88
2023-06-30T12:29:37.140Z,6.15
2023-06-30T12:32:18.461Z,6.32
2023-06-30T12:34:47.491Z,5.75
2023-06-30T12:37:20.206Z,6.43
2023-06-30T12:39:48.273Z,5.90
2023-06-30T12:42:15.457Z,6.10
2023-06-30T12:44:42.726Z,6.13
2023-06-30T12:47:10.135Z,5.20
2023-06-30T12:49:38.523Z,6.35
2023-06-30T12:52:06.450Z,6.63
2023-06-30T12:54:36.662Z,6.35
2023-06-30T12:57:12.341Z,6.70
2023-06-30T12:59:39.631Z,6.35
2023-06-30T13:02:13.599Z,6.63
2023-06-30T13:04:40.874Z,6.85
2023-06-30T13:07:08.115Z,6.72
2023-06-30T13:09:35.418Z,6.70
2023-06-30T13:12:03.213Z,6.63
2023-06-30T13:14:30.911Z,6.88
2023-06-30T13:16:57.982Z,7.30
2023-06-30T13:19:26.330Z,7.28
2023-06-30T13:21:53.515Z,6.93
2023-06-30T13:24:21.430Z,6.93
2023-06-30T13:26:48.678Z,6.82
2023-06-30T13:29:16.337Z,6.03
2023-06-30T13:31:43.762Z,6.22
2023-06-30T13:34:30.835Z,5.20
2023-06-30T13:37:06.065Z,5.57
2023-06-30T13:39:45.631Z,6.70
2023-06-30T13:42:19.306Z,6.28
2023-06-30T13:44:51.842Z,6.07
2023-06-30T13:47:21.522Z,6.27
2023-06-30T13:49:52.067Z,6.15
2023-06-30T13:52:22.440Z,6.38
2023-06-30T13:54:54.510Z,6.20
2023-06-30T13:57:21.772Z,6.40
2023-06-30T13:59:53.726Z,7.20
2023-06-30T14:02:24.394Z,7.07
2023-06-30T14:04:56.564Z,6.88
2023-06-30T14:10:15.689Z,6.50
2023-06-30T14:12:50.364Z,7.25
2023-06-30T14:15:23.069Z,6.82
2023-06-30T14:18:00.749Z,7.85
2023-06-30T14:20:32.289Z,6.65
2023-06-30T14:23:13.437Z,6.53
2023-06-30T14:26:04.827Z,6.63
2023-06-30T14:28:42.696Z,6.72
2023-06-30T14:31:16.319Z,7.50
2023-06-30T14:33:46.180Z,6.75
2023-06-30T14:36:22.420Z,7.13
2023-06-30T14:38:49.898Z,7.28
2023-06-30T14:41:30.156Z,7.13
2023-06-30T14:44:01.650Z,7.45
2023-06-30T14:46:43.222Z,7.15
2023-06-30T14:49:16.751Z,7.15
2023-06-30T14:51:45.712Z,6.78
2023-06-30T14:54:23.603Z,7.50
2023-06-30T14:56:56.682Z,7.50
2023-06-30T14:59:39.885Z,6.80
2023-06-30T15:02:18.346Z,6.18
2023-06-30T15:04:55.103Z,6.32
2023-06-30T15:07:28.525Z,6.20
2023-06-30T15:12:32.410Z,7.25
2023-06-30T15:15:03.877Z,7.43
2023-06-30T15:17:38.460Z,7.00
2023-06-30T15:20:18.094Z,6.57
2023-06-30T15:22:50.472Z,7.05
2023-06-30T15:25:33.808Z,7.22
2023-06-30T15:28:01.884Z,6.10
2023-06-30T15:30:32.144Z,6.25
2023-06-30T15:33:02.641Z,6.10
2023-06-30T15:35:31.964Z,5.97
2023-06-30T15:38:04.334Z,6.35
2023-06-30T15:40:33.667Z,6.35
2023-06-30T15:43:08.418Z,5.35
2023-06-30T15:45:41.218Z,5.95
2023-06-30T15:48:16.598Z,6.13
2023-06-30T15:50:46.647Z,5.13
2023-06-30T15:53:16.126Z,5.55
2023-06-30T15:55:53.991Z,5.72
2023-06-30T15:58:33.153Z,6.15
2023-06-30T16:01:05.836Z,5.35
2023-06-30T16:03:33.242Z,6.47
2023-06-30T16:06:06.549Z,6.63
2023-06-30T16:08:37.305Z,6.93
2023-06-30T16:11:10.413Z,6.30
2023-06-30T16:13:38.449Z,6.30
2023-06-30T16:16:05.947Z,7.57
2023-06-30T16:18:37.724Z,6.47
2023-06-30T16:21:08.637Z,6.90
2023-06-30T16:23:39.194Z,6.72
2023-06-30T16:26:32.951Z,6.47
2023-06-30T16:29:12.060Z,7.35
2023-06-30T16:31:40.239Z,6.90
2023-06-30T16:34:24.965Z,7.32
2023-06-30T16:37:05.636Z,6.57
2023-06-30T16:39:38.090Z,7.13
2023-06-30T16:42:08.804Z,7.07
2023-06-30T16:44:35.895Z,7.72
2023-06-30T16:47:06.717Z,7.22
2023-06-30T16:49:41.635Z,7.63
2023-06-30T16:52:09.300Z,7.43
2023-06-30T16:54:39.754Z,7.53
2023-06-30T16:57:22.639Z,6.57
2023-06-30T17:00:03.727Z,7.10
2023-06-30T17:02:36.679Z,7.22
2023-06-30T17:05:05.623Z,6.97
2023-06-30T17:07:38.421Z,7.25
2023-06-30T17:10:12.515Z,7.07
2023-06-30T17:12:40.332Z,6.63
2023-06-30T17:15:13.342Z,6.68
2023-06-30T17:17:43.619Z,5.95
2023-06-30T17:20:10.997Z,7.25
2023-06-30T17:22:38.731Z,6.82
2023-06-30T17:25:09.156Z,7.03
2023-06-30T17:27:39.345Z,6.95
2023-06-30T17:30:27.826Z,6.68
2023-06-30T17:33:11.501Z,6.38
2023-06-30T17:35:43.600Z,7.32
2023-06-30T17:38:12.376Z,6.13
2023-06-30T17:40:54.187Z,6.53
2023-06-30T17:43:32.393Z,6.28
2023-06-30T17:46:02.095Z,6.70
2023-06-30T17:48:29.230Z,7.22
2023-06-30T17:50:56.784Z,7.22
2023-06-30T17:53:27.008Z,7.38
2023-06-30T17:55:54.238Z,6.97
2023-06-30T17:58:24.532Z,6.65
2023-06-30T18:00:52.827Z,6.75
2023-06-30T18:06:17.138Z,7.32
2023-06-30T18:08:47.696Z,7.30
2023-06-30T18:11:25.598Z,7.88
2023-06-30T18:13:52.787Z,7.38
2023-06-30T18:16:19.919Z,7.40
2023-06-30T18:18:49.484Z,7.30
2023-06-30T18:21:31.227Z,6.60
2023-06-30T18:24:02.064Z,6.00
2023-06-30T18:26:32.112Z,7.57
2023-06-30T18:29:04.995Z,7.13
2023-06-30T18:31:45.208Z,8.02
2023-06-30T18:34:24.390Z,7.45
2023-06-30T18:37:08.213Z,7.03
2023-06-30T18:39:40.502Z,7.22
2023-06-30T18:42:10.188Z,6.88
2023-06-30T18:44:49.310Z,6.85
2023-06-30T18:47:24.458Z,6.38
2023-06-30T18:49:55.549Z,6.75
2023-06-30T18:52:25.295Z,6.68
2023-06-30T18:55:08.377Z,6.90
2023-06-30T19:00:20.594Z,6.35
2023-06-30T19:02:50.913Z,6.88
2023-06-30T19:05:22.895Z,7.13
2023-06-30T19:07:50.841Z,6.63
2023-06-30T19:10:24.522Z,6.78
2023-06-30T19:12:57.179Z,6.95
2023-06-30T19:15:26.789Z,7.22
2023-06-30T19:18:00.159Z,6.93
2023-06-30T19:20:36.299Z,6.65
2023-06-30T19:25:57.109Z,7.35
2023-06-30T19:28:29.785Z,7.82
2023-06-30T19:31:02.547Z,6.80
2023-06-30T19:33:42.669Z,6.68
2023-06-30T19:36:24.634Z,6.60
2023-06-30T19:39:05.860Z,6.88
2023-06-30T19:41:49.920Z,7.03
2023-06-30T19:44:18.991Z,6.57
2023-06-30T19:46:47.749Z,7.72
2023-06-30T19:49:24.057Z,7.57
2023-06-30T19:51:52.925Z,7.35
2023-06-30T19:54:20.002Z,7.78
2023-06-30T19:56:47.130Z,8.15
2023-06-30T19:59:14.356Z,8.93
2023-06-30T20:01:44.604Z,8.10
2023-06-30T20:04:14.932Z,8.05
2023-06-30T20:06:42.386Z,7.88
2023-06-30T20:09:16.951Z,7.93
2023-06-30T20:11:47.942Z,8.90
2023-06-30T20:14:21.706Z,8.93
2023-06-30T20:16:52.198Z,8.77
2023-06-30T20:19:19.685Z,8.70
2023-06-30T20:21:54.330Z,7.78
2023-06-30T20:24:30.245Z,8.75
2023-06-30T20:27:01.406Z,7.78
2023-06-30T20:29:31.752Z,8.15
2023-06-30T20:31:59.273Z,8.30
2023-06-30T20:34:29.911Z,8.27
2023-06-30T20:36:59.483Z,7.93
2023-06-30T20:39:28.734Z,7.35
2023-06-30T20:41:55.902Z,7.40
2023-06-30T20:44:23.175Z,7.88
2023-06-30T20:46:53.891Z,8.30
2023-06-30T20:49:21.052Z,7.53
2023-06-30T20:51:48.157Z,8.32
2023-06-30T20:54:21.302Z,8.13
2023-06-30T20:56:52.672Z,7.95
2023-06-30T20:59:23.360Z,8.48
2023-06-30T21:04:25.077Z,7.57
2023-06-30T21:06:59.357Z,7.88
2023-06-30T21:09:29.456Z,7.43
2023-06-30T21:12:01.433Z,7.60
2023-06-30T21:14:40.405Z,7.53
2023-06-30T21:17:11.812Z,8.07
2023-06-30T21:19:41.015Z,7.60
2023-06-30T21:22:14.975Z,8.68
2023-06-30T21:24:42.080Z,7.35
2023-06-30T21:27:11.406Z,7.13
2023-06-30T21:29:41.728Z,7.88
2023-06-30T21:32:10.468Z,6.85
2023-06-30T21:34:37.715Z,6.95
2023-06-30T21:37:14.232Z,6.55
2023-06-30T21:39:44.371Z,6.88
2023-06-30T21:42:11.643Z,6.88
2023-06-30T21:44:40.955Z,6.60
2023-06-30T21:47:08.599Z,6.43
2023-06-30T21:49:38.123Z,6.28
2023-06-30T21:52:05.902Z,6.70
2023-06-30T21:54:47.165Z,6.13
2023-06-30T21:57:19.412Z,6.28
2023-06-30T21:59:55.477Z,6.22
2023-06-30T22:02:22.923Z,5.78
2023-06-30T22:04:50.535Z,5.60
2023-06-30T22:07:17.813Z,6.00
2023-06-30T22:09:47.279Z,5.50
2023-06-30T22:12:17.774Z,5.65
2023-06-30T22:14:45.197Z,6.53
2023-06-30T22:17:12.390Z,5.30
2023-06-30T22:19:42.794Z,5.43
2023-06-30T22:22:14.585Z,5.53
2023-06-30T22:24:41.873Z,4.80
2023-06-30T22:27:09.047Z,5.38
2023-06-30T22:29:36.541Z,6.13
2023-06-30T22:32:04.157Z,4.68
2023-06-30T22:34:33.753Z,5.55
2023-06-30T22:37:03.764Z,5.00
2023-06-30T22:39:30.855Z,5.45
2023-06-30T22:41:58.670Z,4.95
2023-06-30T22:44:28.603Z,5.03
2023-06-30T22:46:55.893Z,4.90
2023-06-30T22:49:23.217Z,4.68
2023-06-30T22:51:50.414Z,5.05
2023-06-30T22:54:17.579Z,5.00
2023-06-30T22:56:47.820Z,5.70
2023-06-30T22:59:19.499Z,5.25
2023-06-30T23:01:46.912Z,5.65
2023-06-30T23:04:14.223Z,4.60
2023-06-30T23:06:41.601Z,4.90
2023-06-30T23:09:11.323Z,6.47
2023-06-30T23:11:43.433Z,5.45
2023-06-30T23:14:10.869Z,4.97
2023-06-30T23:16:40.815Z,5.13
2023-06-30T23:19:09.707Z,5.55
2023-06-30T23:21:38.401Z,6.65
2023-06-30T23:24:11.188Z,5.45
2023-06-30T23:26:41.624Z,4.18
2023-06-30T23:29:12.006Z,3.15
2023-06-30T23:31:43.136Z,3.83
2023-06-30T23:34:15.128Z,2.90
2023-06-30T23:36:43.853Z,4.07
2023-06-30T23:39:11.587Z,4.30
2023-06-30T23:41:38.624Z,4.00
2023-06-30T23:44:06.838Z,4.47
2023-06-30T23:46:34.101Z,4.00
2023-06-30T23:49:04.066Z,3.53
2023-06-30T23:51:36.918Z,4.95
2023-06-30T23:54:04.295Z,3.83
2023-06-30T23:56:31.407Z,4.38
2023-06-30T23:58:58.618Z,4.30
